createdAt,value
2022-12-11T00:01:55.425Z,13.93
2022-12-11T00:04:21.866Z,14.50
2022-12-11T00:06:48.293Z,15.34
2022-12-11T00:09:14.738Z,14.89
2022-12-11T00:11:41.160Z,15.16
2022-12-11T00:14:07.577Z,15.21
2022-12-11T00:16:33.993Z,15.86
2022-12-11T00:19:00.468Z,15.02
2022-12-11T00:21:26.880Z,14.86
2022-12-11T00:23:53.285Z,14.76
2022-12-11T00:26:19.770Z,14.46
2022-12-11T00:28:46.218Z,14.66
2022-12-11T00:31:12.660Z,14.51
2022-12-11T00:33:39.102Z,14.62
2022-12-11T00:36:05.534Z,15.51
2022-12-11T00:38:32.012Z,15.62
2022-12-11T00:40:58.453Z,16.11
2022-12-11T00:43:24.905Z,15.48
2022-12-11T00:45:51.355Z,14.80
2022-12-11T00:48:17.843Z,14.94
2022-12-11T00:50:44.245Z,14.74
2022-12-11T00:53:10.638Z,14.73
2022-12-11T00:55:37.066Z,14.41
2022-12-11T00:58:03.486Z,14.30
2022-12-11T01:00:29.968Z,13.99
2022-12-11T01:02:56.489Z,14.07
2022-12-11T01:05:22.969Z,13.47
2022-12-11T01:07:49.382Z,12.68
2022-12-11T01:10:15.999Z,12.70
2022-12-11T01:12:42.476Z,12.53
2022-12-11T01:15:09.195Z,13.11
2022-12-11T01:17:35.949Z,12.91
2022-12-11T01:20:02.376Z,13.62
2022-12-11T01:22:28.832Z,14.70
2022-12-11T01:24:55.244Z,16.18
2022-12-11T01:27:21.960Z,14.71
2022-12-11T01:29:48.351Z,14.17
2022-12-11T01:32:14.767Z,13.75
2022-12-11T01:34:41.184Z,14.32
2022-12-11T01:37:07.614Z,13.75
2022-12-11T01:39:34.038Z,14.87
2022-12-11T01:42:00.482Z,15.77
2022-12-11T01:44:26.943Z,15.39
2022-12-11T01:46:53.398Z,15.52
2022-12-11T01:49:19.829Z,14.76
2022-12-11T01:51:46.230Z,14.80
2022-12-11T01:54:12.641Z,14.46
2022-12-11T01:56:39.033Z,13.94
2022-12-11T01:59:05.503Z,14.23
2022-12-11T02:01:31.979Z,12.81
2022-12-11T02:03:58.486Z,13.47
2022-12-11T02:06:24.977Z,13.31
2022-12-11T02:08:51.407Z,13.60
2022-12-11T02:11:17.804Z,13.31
2022-12-11T02:13:44.207Z,12.86
2022-12-11T02:16:10.657Z,13.10
2022-12-11T02:18:37.143Z,12.92
2022-12-11T02:21:03.579Z,12.29
2022-12-11T02:23:29.995Z,12.35
2022-12-11T02:25:56.387Z,12.55
2022-12-11T02:28:22.793Z,12.78
2022-12-11T02:30:49.194Z,12.51
2022-12-11T02:33:15.621Z,12.11
2022-12-11T02:35:42.062Z,11.88
2022-12-11T02:38:08.541Z,12.13
2022-12-11T02:40:34.962Z,11.96
2022-12-11T02:43:01.361Z,12.74
2022-12-11T02:45:27.845Z,11.86
2022-12-11T02:47:54.275Z,11.85
2022-12-11T02:50:20.685Z,11.57
2022-12-11T02:52:47.112Z,11.43
2022-12-11T02:55:13.669Z,11.31
2022-12-11T02:57:40.124Z,11.34
2022-12-11T03:00:06.627Z,11.44
2022-12-11T03:02:33.149Z,11.92
2022-12-11T03:04:59.907Z,11.11
2022-12-11T03:07:26.490Z,10.99
2022-12-11T03:09:52.952Z,11.10
2022-12-11T03:12:19.391Z,11.75
2022-12-11T03:14:45.855Z,11.67
2022-12-11T03:17:12.252Z,12.26
2022-12-11T03:19:38.675Z,11.66
2022-12-11T03:22:05.115Z,11.90
2022-12-11T03:24:31.527Z,12.38
2022-12-11T03:27:00.162Z,12.61
2022-12-11T03:29:27.446Z,12.42
2022-12-11T03:31:53.909Z,12.24
2022-12-11T03:34:20.320Z,11.75
2022-12-11T03:36:47.167Z,11.36
2022-12-11T03:39:13.577Z,11.07
2022-12-11T03:41:39.989Z,10.86
2022-12-11T03:44:06.435Z,11.09
2022-12-11T03:46:33.007Z,11.23
2022-12-11T03:48:59.486Z,11.81
2022-12-11T03:51:25.919Z,10.78
2022-12-11T03:53:52.356Z,10.53
2022-12-11T03:56:18.779Z,10.11
2022-12-11T03:58:45.234Z,9.25
2022-12-11T04:01:11.652Z,10.06
2022-12-11T04:03:38.095Z,9.64
2022-12-11T04:06:04.525Z,9.70
2022-12-11T04:08:30.988Z,10.44
2022-12-11T04:10:57.447Z,11.10
2022-12-11T04:13:23.841Z,10.82
2022-12-11T04:15:50.299Z,10.94
2022-12-11T04:18:16.779Z,11.22
2022-12-11T04:20:43.201Z,10.85
2022-12-11T04:23:09.635Z,11.18
2022-12-11T04:25:36.093Z,10.99
2022-12-11T04:28:02.487Z,10.99
2022-12-11T04:30:33.961Z,10.97
2022-12-11T04:33:00.803Z,11.71
2022-12-11T04:35:27.260Z,12.38
2022-12-11T04:37:53.743Z,12.81
2022-12-11T04:40:20.235Z,12.60
2022-12-11T04:42:46.645Z,13.17
2022-12-11T04:45:13.373Z,14.02
2022-12-11T04:47:39.994Z,14.17
2022-12-11T04:50:06.406Z,13.61
2022-12-11T04:52:32.841Z,13.42
2022-12-11T04:54:59.250Z,13.88
2022-12-11T04:57:25.709Z,15.15
2022-12-11T04:59:52.124Z,13.97
2022-12-11T05:02:18.529Z,13.99
2022-12-11T05:04:44.988Z,13.61
2022-12-11T05:07:11.407Z,13.51
2022-12-11T05:09:37.858Z,14.05
2022-12-11T05:12:04.290Z,13.27
2022-12-11T05:14:30.677Z,12.92
2022-12-11T05:16:57.096Z,13.60
2022-12-11T05:19:23.541Z,13.22
2022-12-11T05:21:49.971Z,13.30
2022-12-11T05:24:16.384Z,13.37
2022-12-11T05:26:42.843Z,13.33
2022-12-11T05:29:09.349Z,15.42
2022-12-11T05:31:35.843Z,13.78
2022-12-11T05:34:02.324Z,14.11
2022-12-11T05:36:28.759Z,13.45
2022-12-11T05:38:55.195Z,13.52
2022-12-11T05:41:21.618Z,16.55
2022-12-11T05:43:48.072Z,28.25
2022-12-11T05:46:14.555Z,14.88
2022-12-11T05:48:41.050Z,13.47
2022-12-11T05:51:07.452Z,13.22
2022-12-11T05:53:33.902Z,13.40
2022-12-11T05:56:00.323Z,12.83
2022-12-11T05:58:26.850Z,12.52
2022-12-11T06:00:53.248Z,11.91
2022-12-11T06:03:19.734Z,11.99
2022-12-11T06:05:46.176Z,12.30
2022-12-11T06:08:12.632Z,11.84
2022-12-11T06:10:39.118Z,11.21
2022-12-11T06:13:05.542Z,11.30
2022-12-11T06:15:32.051Z,11.44
2022-12-11T06:17:58.458Z,10.34
2022-12-11T06:20:24.865Z,10.01
2022-12-11T06:22:51.302Z,25.94
2022-12-11T06:25:17.805Z,80.72
2022-12-11T06:27:44.521Z,36.30
2022-12-11T06:30:11.510Z,13.11
2022-12-11T06:32:37.943Z,14.73
2022-12-11T06:35:04.407Z,11.70
2022-12-11T06:37:30.820Z,12.67
2022-12-11T06:39:57.242Z,13.03
2022-12-11T06:42:24.450Z,12.64
2022-12-11T06:44:50.844Z,12.03
2022-12-11T06:47:17.254Z,12.70
2022-12-11T06:49:43.678Z,12.46
2022-12-11T06:52:15.017Z,14.13
2022-12-11T06:54:44.561Z,12.96
2022-12-11T06:57:10.983Z,12.46
2022-12-11T06:59:37.402Z,12.22
2022-12-11T07:02:03.871Z,12.08
2022-12-11T07:04:30.372Z,12.08
2022-12-11T07:06:56.806Z,12.24
2022-12-11T07:09:23.226Z,14.91
2022-12-11T07:11:49.622Z,13.17
2022-12-11T07:14:16.065Z,12.10
2022-12-11T07:16:42.677Z,12.77
2022-12-11T07:19:09.138Z,12.78
2022-12-11T07:21:35.573Z,12.41
2022-12-11T07:24:02.016Z,12.67
2022-12-11T07:26:28.469Z,12.61
2022-12-11T07:28:54.869Z,12.28
2022-12-11T07:31:21.598Z,12.80
2022-12-11T07:33:48.081Z,14.25
2022-12-11T07:36:14.566Z,11.73
2022-12-11T07:38:40.983Z,11.55
2022-12-11T07:41:07.414Z,11.84
2022-12-11T07:43:33.849Z,12.64
2022-12-11T07:46:00.292Z,12.27
2022-12-11T07:48:26.781Z,10.64
2022-12-11T07:50:53.201Z,11.99
2022-12-11T07:53:19.654Z,13.31
2022-12-11T07:55:46.081Z,12.63
2022-12-11T07:58:12.488Z,12.76
2022-12-11T08:00:38.924Z,29.75
2022-12-11T08:03:05.352Z,20.83
2022-12-11T08:05:31.776Z,12.55
2022-12-11T08:07:58.320Z,13.49
2022-12-11T08:10:24.784Z,13.21
2022-12-11T08:12:51.231Z,13.32
2022-12-11T08:15:17.728Z,13.59
2022-12-11T08:17:44.509Z,14.97
2022-12-11T08:20:10.951Z,14.62
2022-12-11T08:22:37.385Z,12.78
2022-12-11T08:25:03.813Z,13.22
2022-12-11T08:27:30.215Z,12.76
2022-12-11T08:29:56.646Z,12.79
2022-12-11T08:32:23.074Z,12.49
2022-12-11T08:34:49.510Z,12.53
2022-12-11T08:37:16.052Z,14.05
2022-12-11T08:39:42.493Z,12.25
2022-12-11T08:42:08.898Z,12.05
2022-12-11T08:44:35.342Z,12.21
2022-12-11T08:47:01.829Z,11.87
2022-12-11T08:49:34.057Z,12.14
2022-12-11T08:52:00.919Z,11.98
2022-12-11T08:54:27.352Z,11.11
2022-12-11T08:56:57.915Z,10.82
2022-12-11T08:59:24.780Z,9.74
2022-12-11T09:01:51.273Z,9.56
2022-12-11T09:04:17.715Z,10.30
2022-12-11T09:06:44.304Z,11.11
2022-12-11T09:09:10.725Z,11.64
2022-12-11T09:11:37.184Z,12.06
2022-12-11T09:14:07.627Z,19.98
2022-12-11T09:16:34.517Z,13.31
2022-12-11T09:19:00.952Z,14.93
2022-12-11T09:21:27.381Z,13.65
2022-12-11T09:23:53.782Z,13.65
2022-12-11T09:26:20.200Z,14.29
2022-12-11T09:28:47.384Z,15.15
2022-12-11T09:31:13.956Z,12.31
2022-12-11T09:33:40.381Z,12.68
2022-12-11T09:36:06.806Z,12.12
2022-12-11T09:38:33.228Z,13.31
2022-12-11T09:40:59.663Z,13.19
2022-12-11T09:43:26.111Z,17.50
2022-12-11T09:45:52.550Z,17.93
2022-12-11T09:48:19.088Z,16.03
2022-12-11T09:50:45.512Z,16.22
2022-12-11T09:53:11.956Z,14.54
2022-12-11T09:55:38.367Z,12.67
2022-12-11T09:58:04.795Z,13.29
2022-12-11T10:00:31.222Z,13.78
2022-12-11T10:02:57.636Z,13.39
2022-12-11T10:05:24.106Z,13.73
2022-12-11T10:07:50.599Z,15.21
2022-12-11T10:10:17.105Z,15.50
2022-12-11T10:12:43.539Z,18.58
2022-12-11T10:15:10.435Z,19.50
2022-12-11T10:17:37.189Z,18.57
2022-12-11T10:20:03.610Z,20.71
2022-12-11T10:22:30.013Z,16.67
2022-12-11T10:25:12.528Z,15.63
2022-12-11T10:27:39.202Z,16.11
2022-12-11T10:30:05.646Z,15.64
2022-12-11T10:32:32.051Z,15.22
2022-12-11T10:34:58.496Z,15.69
2022-12-11T10:37:24.921Z,15.55
2022-12-11T10:39:51.337Z,15.14
2022-12-11T10:42:17.744Z,15.92
2022-12-11T10:44:44.174Z,14.34
2022-12-11T10:47:10.668Z,13.80
2022-12-11T10:49:37.076Z,14.00
2022-12-11T10:52:03.519Z,14.43
2022-12-11T10:54:29.947Z,16.40
2022-12-11T10:56:56.392Z,13.85
2022-12-11T10:59:24.219Z,30.59
2022-12-11T11:01:50.727Z,13.31
2022-12-11T11:04:17.134Z,12.09
2022-12-11T11:06:43.578Z,17.28
2022-12-11T11:09:10.070Z,14.27
2022-12-11T11:11:36.566Z,13.03
2022-12-11T11:14:02.972Z,12.36
2022-12-11T11:16:29.449Z,14.53
2022-12-11T11:18:55.958Z,17.46
2022-12-11T11:21:22.381Z,15.89
2022-12-11T11:23:53.301Z,15.84
2022-12-11T11:26:20.444Z,15.43
2022-12-11T11:28:47.032Z,14.99
2022-12-11T11:31:13.659Z,14.86
2022-12-11T11:33:40.285Z,13.75
2022-12-11T11:36:06.766Z,14.11
2022-12-11T11:38:33.445Z,14.50
2022-12-11T11:41:05.629Z,14.76
2022-12-11T11:43:34.673Z,14.31
2022-12-11T11:46:02.254Z,14.26
2022-12-11T11:48:29.852Z,15.30
2022-12-11T11:50:56.434Z,16.37
2022-12-11T11:53:26.034Z,16.47
2022-12-11T11:55:53.627Z,17.02
2022-12-11T11:58:20.211Z,14.43
2022-12-11T12:00:46.807Z,14.16
2022-12-11T12:03:14.400Z,16.25
2022-12-11T12:05:41.007Z,16.65
2022-12-11T12:08:07.630Z,15.61
2022-12-11T12:10:35.180Z,15.16
2022-12-11T12:13:01.666Z,16.29
2022-12-11T12:15:28.348Z,15.13
2022-12-11T12:17:56.494Z,15.84
2022-12-11T12:20:23.584Z,14.76
2022-12-11T12:22:50.207Z,14.00
2022-12-11T12:25:17.756Z,14.13
2022-12-11T12:27:52.191Z,14.57
2022-12-11T12:30:22.917Z,15.11
2022-12-11T12:32:50.583Z,14.38
2022-12-11T12:35:18.179Z,13.96
2022-12-11T12:37:45.783Z,14.41
2022-12-11T12:40:12.368Z,15.36
2022-12-11T12:42:38.969Z,14.09
2022-12-11T12:45:05.533Z,15.55
2022-12-11T12:47:34.174Z,16.49
2022-12-11T12:50:01.795Z,13.58
2022-12-11T12:52:29.395Z,13.33
2022-12-11T12:54:55.977Z,13.56
2022-12-11T12:57:23.577Z,14.13
2022-12-11T12:59:50.153Z,15.20
2022-12-11T13:02:17.904Z,16.74
2022-12-11T13:04:55.935Z,16.39
2022-12-11T13:07:23.973Z,15.72
2022-12-11T13:09:50.595Z,15.48
2022-12-11T13:12:18.165Z,14.95
2022-12-11T13:14:44.765Z,13.55
2022-12-11T13:17:12.381Z,13.70
2022-12-11T13:19:42.897Z,12.78
2022-12-11T13:22:09.444Z,15.00
2022-12-11T13:24:35.907Z,14.85
2022-12-11T13:27:02.760Z,13.98
2022-12-11T13:29:29.342Z,14.34
2022-12-11T13:31:55.969Z,14.15
2022-12-11T13:34:23.529Z,17.09
2022-12-11T13:36:50.112Z,31.19
2022-12-11T13:39:17.720Z,18.36
2022-12-11T13:41:44.292Z,13.34
2022-12-11T13:44:10.896Z,14.71
2022-12-11T13:46:38.484Z,14.61
2022-12-11T13:49:05.193Z,30.31
2022-12-11T13:51:33.755Z,15.13
2022-12-11T13:54:00.383Z,15.32
2022-12-11T13:56:26.971Z,14.04
2022-12-11T13:58:53.561Z,13.59
2022-12-11T14:01:20.185Z,12.13
2022-12-11T14:03:47.731Z,12.66
2022-12-11T14:06:18.846Z,13.44
2022-12-11T14:08:46.939Z,14.99
2022-12-11T14:11:14.555Z,14.18
2022-12-11T14:13:41.186Z,12.20
2022-12-11T14:16:08.785Z,12.73
2022-12-11T14:18:36.338Z,12.71
2022-12-11T14:21:03.929Z,12.29
2022-12-11T14:23:31.504Z,13.57
2022-12-11T14:26:00.133Z,13.16
2022-12-11T14:28:27.736Z,12.59
2022-12-11T14:30:55.296Z,13.05
2022-12-11T14:33:24.501Z,12.74
2022-12-11T14:35:51.505Z,19.69
2022-12-11T14:38:17.989Z,26.30
2022-12-11T14:40:44.454Z,14.25
2022-12-11T14:43:10.896Z,13.23
2022-12-11T14:45:37.398Z,15.26
2022-12-11T14:48:03.866Z,13.29
2022-12-11T14:50:30.597Z,15.18
2022-12-11T14:52:57.036Z,15.52
2022-12-11T14:55:23.500Z,16.65
2022-12-11T14:57:50.896Z,14.31
2022-12-11T15:00:18.472Z,13.60
2022-12-11T15:02:45.096Z,13.46
2022-12-11T15:05:12.668Z,14.42
2022-12-11T15:07:39.251Z,13.46
2022-12-11T15:10:05.708Z,14.71
2022-12-11T15:12:32.118Z,15.20
2022-12-11T15:14:58.567Z,15.26
2022-12-11T15:17:24.977Z,14.31
2022-12-11T15:19:51.428Z,14.38
2022-12-11T15:22:17.922Z,13.66
2022-12-11T15:24:44.341Z,12.54
2022-12-11T15:27:10.773Z,13.09
2022-12-11T15:29:37.187Z,13.30
2022-12-11T15:32:03.632Z,13.10
2022-12-11T15:34:30.056Z,13.91
2022-12-11T15:36:56.487Z,13.34
2022-12-11T15:39:22.915Z,13.12
2022-12-11T15:41:49.455Z,15.37
2022-12-11T15:44:15.859Z,16.73
2022-12-11T15:46:42.296Z,18.76
2022-12-11T15:49:08.711Z,22.30
2022-12-11T15:51:39.729Z,21.63
2022-12-11T15:54:09.146Z,19.67
2022-12-11T15:56:35.728Z,19.29
2022-12-11T15:59:02.143Z,16.79
2022-12-11T16:01:28.583Z,17.81
2022-12-11T16:03:55.046Z,17.97
2022-12-11T16:06:21.496Z,20.44
2022-12-11T16:08:47.932Z,19.70
2022-12-11T16:11:14.363Z,20.71
2022-12-11T16:13:40.779Z,20.34
2022-12-11T16:16:07.249Z,19.41
2022-12-11T16:18:33.676Z,18.88
2022-12-11T16:21:00.074Z,21.95
2022-12-11T16:23:26.492Z,24.44
2022-12-11T16:25:52.916Z,21.88
2022-12-11T16:28:19.357Z,21.35
2022-12-11T16:30:45.852Z,25.70
2022-12-11T16:33:13.458Z,23.44
2022-12-11T16:35:40.111Z,28.77
2022-12-11T16:38:06.545Z,29.36
2022-12-11T16:40:32.942Z,32.34
2022-12-11T16:42:59.389Z,30.74
2022-12-11T16:45:25.829Z,36.97
2022-12-11T16:47:52.273Z,35.96
2022-12-11T16:50:18.678Z,23.43
2022-12-11T16:52:45.114Z,26.40
2022-12-11T16:55:11.765Z,25.44
2022-12-11T16:57:38.469Z,25.18
2022-12-11T17:00:04.919Z,26.72
2022-12-11T17:02:31.362Z,22.70
2022-12-11T17:04:57.783Z,23.76
2022-12-11T17:07:24.217Z,25.24
2022-12-11T17:09:50.614Z,24.65
2022-12-11T17:12:17.017Z,25.12
2022-12-11T17:14:43.447Z,24.06
2022-12-11T17:17:09.859Z,22.86
2022-12-11T17:19:36.396Z,26.42
2022-12-11T17:22:02.818Z,27.36
2022-12-11T17:24:29.244Z,38.08
2022-12-11T17:26:55.663Z,37.49
2022-12-11T17:29:22.125Z,29.86
2022-12-11T17:31:48.534Z,24.85
2022-12-11T17:34:14.927Z,22.71
2022-12-11T17:36:41.372Z,23.84
2022-12-11T17:39:07.782Z,25.03
2022-12-11T17:41:34.201Z,23.65
2022-12-11T17:44:00.615Z,21.79
2022-12-11T17:46:27.105Z,19.36
2022-12-11T17:48:53.562Z,18.94
2022-12-11T17:51:19.995Z,20.23
2022-12-11T17:53:46.410Z,20.39
2022-12-11T17:56:12.858Z,19.94
2022-12-11T17:58:39.496Z,19.38
2022-12-11T18:01:05.942Z,18.31
2022-12-11T18:03:32.479Z,20.16
2022-12-11T18:05:58.928Z,22.82
2022-12-11T18:08:25.390Z,18.39
2022-12-11T18:10:51.855Z,17.22
2022-12-11T18:13:18.255Z,20.37
2022-12-11T18:15:44.713Z,20.90
2022-12-11T18:18:11.169Z,20.89
2022-12-11T18:20:37.648Z,19.95
2022-12-11T18:23:04.084Z,17.49
2022-12-11T18:25:30.509Z,17.27
2022-12-11T18:27:57.122Z,18.67
2022-12-11T18:30:23.550Z,19.45
2022-12-11T18:32:49.974Z,16.48
2022-12-11T18:35:16.397Z,17.96
2022-12-11T18:37:42.812Z,27.98
2022-12-11T18:40:09.341Z,27.87
2022-12-11T18:42:35.798Z,20.31
2022-12-11T18:45:02.218Z,16.45
2022-12-11T18:47:28.614Z,18.05
2022-12-11T18:49:55.014Z,16.53
2022-12-11T18:52:21.436Z,17.50
2022-12-11T18:54:47.907Z,23.66
2022-12-11T18:57:14.326Z,23.41
2022-12-11T18:59:40.763Z,29.17
2022-12-11T19:02:07.234Z,31.89
2022-12-11T19:04:33.652Z,28.86
2022-12-11T19:07:00.042Z,38.61
2022-12-11T19:09:26.446Z,34.31
2022-12-11T19:11:52.860Z,26.66
2022-12-11T19:14:19.281Z,29.81
2022-12-11T19:16:45.675Z,34.03
2022-12-11T19:19:12.093Z,34.49
2022-12-11T19:21:38.524Z,37.98
2022-12-11T19:24:04.980Z,28.76
2022-12-11T19:26:31.406Z,27.58
2022-12-11T19:28:57.811Z,36.43
2022-12-11T19:31:24.357Z,39.99
2022-12-11T19:33:50.791Z,34.61
2022-12-11T19:36:17.184Z,37.24
2022-12-11T19:38:43.602Z,40.31
2022-12-11T19:41:10.000Z,70.09
2022-12-11T19:43:36.480Z,68.70
2022-12-11T19:46:02.903Z,37.22
2022-12-11T19:48:29.328Z,32.94
2022-12-11T19:50:55.744Z,30.42
2022-12-11T19:53:22.197Z,27.81
2022-12-11T19:55:48.638Z,36.60
2022-12-11T19:58:15.033Z,34.98
2022-12-11T20:00:41.523Z,31.34
2022-12-11T20:03:07.936Z,34.45
2022-12-11T20:05:34.321Z,33.75
2022-12-11T20:08:27.398Z,37.38
2022-12-11T20:10:47.114Z,42.59
2022-12-11T20:13:13.536Z,31.74
2022-12-11T20:15:39.947Z,36.09
2022-12-11T20:18:06.348Z,32.55
2022-12-11T20:20:32.762Z,31.86
2022-12-11T20:22:59.184Z,40.01
2022-12-11T20:25:26.630Z,38.61
2022-12-11T20:27:53.064Z,42.17
2022-12-11T20:30:19.498Z,40.19
2022-12-11T20:32:45.930Z,37.52
2022-12-11T20:35:12.585Z,41.25
2022-12-11T20:37:39.178Z,44.80
2022-12-11T20:40:05.633Z,32.16
2022-12-11T20:42:32.067Z,30.35
2022-12-11T20:44:58.464Z,29.98
2022-12-11T20:47:24.898Z,30.22
2022-12-11T20:49:51.342Z,30.89
2022-12-11T20:52:17.773Z,31.67
2022-12-11T20:54:44.192Z,32.21
2022-12-11T20:57:10.630Z,31.60
2022-12-11T20:59:37.080Z,35.08
2022-12-11T21:02:03.540Z,32.58
2022-12-11T21:04:29.990Z,30.41
2022-12-11T21:06:56.411Z,31.58
2022-12-11T21:09:22.854Z,32.87
2022-12-11T21:11:49.279Z,30.09
2022-12-11T21:14:15.706Z,29.75
2022-12-11T21:16:42.163Z,28.17
2022-12-11T21:19:12.444Z,28.96
2022-12-11T21:21:42.905Z,28.86
2022-12-11T21:24:09.341Z,27.78
2022-12-11T21:26:35.756Z,27.98
2022-12-11T21:29:02.170Z,27.88
2022-12-11T21:31:28.606Z,26.85
2022-12-11T21:33:55.049Z,27.45
2022-12-11T21:36:21.483Z,28.29
2022-12-11T21:38:47.889Z,27.59
2022-12-11T21:41:14.299Z,26.62
2022-12-11T21:44:06.795Z,28.00
2022-12-11T21:46:27.273Z,28.47
2022-12-11T21:48:53.711Z,29.18
2022-12-11T21:51:20.150Z,29.82
2022-12-11T21:53:46.608Z,29.52
2022-12-11T21:56:13.026Z,39.58
2022-12-11T21:58:39.439Z,33.97
2022-12-11T22:01:05.892Z,30.66
2022-12-11T22:03:32.344Z,31.87
2022-12-11T22:05:58.780Z,33.63
2022-12-11T22:08:25.260Z,30.08
2022-12-11T22:10:51.744Z,28.38
2022-12-11T22:13:18.161Z,30.30
2022-12-11T22:15:44.553Z,30.27
2022-12-11T22:18:10.981Z,29.69
2022-12-11T22:20:37.436Z,31.13
2022-12-11T22:23:03.901Z,33.82
2022-12-11T22:25:30.327Z,33.58
2022-12-11T22:27:56.736Z,31.26
2022-12-11T22:30:23.148Z,30.78
2022-12-11T22:32:49.571Z,32.01
2022-12-11T22:35:15.995Z,32.14
2022-12-11T22:37:42.548Z,32.14
2022-12-11T22:40:08.960Z,31.58
2022-12-11T22:42:35.394Z,32.55
2022-12-11T22:45:01.803Z,32.90
2022-12-11T22:47:28.257Z,31.44
2022-12-11T22:49:54.663Z,31.68
2022-12-11T22:52:21.066Z,31.96
2022-12-11T22:54:47.549Z,37.45
2022-12-11T22:57:14.027Z,38.05
2022-12-11T22:59:40.489Z,31.14
2022-12-11T23:02:06.968Z,32.68
2022-12-11T23:04:33.432Z,31.19
2022-12-11T23:06:59.885Z,32.64
2022-12-11T23:09:26.295Z,38.76
2022-12-11T23:11:52.728Z,33.06
2022-12-11T23:14:19.154Z,33.60
2022-12-11T23:16:45.638Z,35.18
2022-12-11T23:19:12.118Z,35.63
2022-12-11T23:21:38.514Z,35.99
2022-12-11T23:24:04.940Z,36.50
2022-12-11T23:26:31.386Z,40.40
2022-12-11T23:28:57.825Z,37.71
2022-12-11T23:31:24.347Z,36.71
2022-12-11T23:33:50.842Z,35.78
2022-12-11T23:36:17.258Z,37.97
2022-12-11T23:38:43.706Z,34.14
2022-12-11T23:41:10.120Z,35.40
2022-12-11T23:43:36.650Z,41.21
2022-12-11T23:46:03.181Z,35.81
2022-12-11T23:48:29.682Z,35.36
2022-12-11T23:50:56.099Z,34.71
2022-12-11T23:53:22.536Z,33.99
2022-12-11T23:55:48.968Z,33.68
2022-12-11T23:58:15.371Z,35.00
